createdAt,value
2018-01-10T00:01:12.364Z,76.87
2018-01-10T00:03:43.769Z,77.17
2018-01-10T00:06:14.880Z,77.18
2018-01-10T00:08:46.266Z,77.13
2018-01-10T00:11:18.538Z,77.44
2018-01-10T00:13:49.693Z,77.50
2018-01-10T00:16:20.785Z,77.35
2018-01-10T00:18:52.184Z,77.06
2018-01-10T00:21:23.332Z,77.02
2018-01-10T00:23:54.683Z,77.27
2018-01-10T00:26:26.034Z,77.34
2018-01-10T00:28:57.717Z,77.03
2018-01-10T00:31:28.794Z,77.01
2018-01-10T00:33:59.887Z,77.15
2018-01-10T00:36:31.132Z,77.27
2018-01-10T00:39:02.383Z,77.04
2018-01-10T00:41:33.632Z,77.10
2018-01-10T00:44:04.986Z,77.25
2018-01-10T00:46:36.338Z,77.08
2018-01-10T00:49:07.688Z,77.20
2018-01-10T00:51:39.312Z,77.34
2018-01-10T00:54:10.459Z,76.95
2018-01-10T00:56:41.552Z,76.65
2018-01-10T00:59:12.892Z,76.50
2018-01-10T01:01:44.244Z,76.47
2018-01-10T01:04:15.349Z,76.39
2018-01-10T01:06:46.529Z,76.78
2018-01-10T01:09:17.888Z,77.76
2018-01-10T01:11:49.240Z,78.26
2018-01-10T01:14:20.378Z,78.46
2018-01-10T01:16:51.743Z,78.24
2018-01-10T01:19:22.877Z,77.93
2018-01-10T01:21:53.984Z,77.88
2018-01-10T01:24:25.146Z,78.08
2018-01-10T01:26:56.228Z,78.08
2018-01-10T01:29:27.501Z,78.36
2018-01-10T01:31:59.227Z,78.21
2018-01-10T01:34:30.585Z,77.79
2018-01-10T01:37:01.806Z,77.84
2018-01-10T01:39:33.084Z,77.52
2018-01-10T01:42:04.435Z,77.31
2018-01-10T01:44:35.786Z,77.03
2018-01-10T01:47:07.036Z,76.82
2018-01-10T01:49:38.388Z,76.68
2018-01-10T01:52:09.738Z,76.64
2018-01-10T01:54:41.091Z,76.57
2018-01-10T01:57:12.148Z,76.51
2018-01-10T01:59:43.589Z,76.44
2018-01-10T02:02:14.838Z,76.35
2018-01-10T02:04:46.088Z,76.41
2018-01-10T02:07:17.442Z,76.32
2018-01-10T02:09:48.685Z,75.98
2018-01-10T02:12:19.780Z,75.62
2018-01-10T02:14:50.952Z,75.42
2018-01-10T02:17:22.080Z,75.17
2018-01-10T02:19:53.382Z,74.97
2018-01-10T02:22:25.054Z,74.75
2018-01-10T02:24:56.198Z,74.64
2018-01-10T02:27:27.538Z,74.69
2018-01-10T02:29:58.888Z,75.11
2018-01-10T02:32:30.070Z,75.59
2018-01-10T02:35:01.182Z,75.98
2018-01-10T02:37:32.534Z,76.28
2018-01-10T02:40:03.678Z,76.22
2018-01-10T02:42:38.001Z,76.06
2018-01-10T02:45:09.352Z,75.98
2018-01-10T02:47:40.712Z,75.98
2018-01-10T02:50:11.799Z,75.96
2018-01-10T02:52:43.075Z,75.99
2018-01-10T02:55:14.351Z,76.38
2018-01-10T02:57:46.132Z,76.15
2018-01-10T03:00:17.463Z,75.94
2018-01-10T03:02:49.322Z,75.82
2018-01-10T03:05:20.434Z,75.86
2018-01-10T03:07:52.491Z,75.94
2018-01-10T03:10:23.688Z,76.52
2018-01-10T03:12:55.033Z,76.93
2018-01-10T03:15:26.194Z,77.22
2018-01-10T03:17:57.847Z,77.31
2018-01-10T03:20:29.402Z,77.32
2018-01-10T03:23:00.468Z,77.35
2018-01-10T03:25:31.579Z,77.60
2018-01-10T03:28:02.843Z,77.78
2018-01-10T03:30:34.199Z,77.97
2018-01-10T03:33:05.312Z,77.84
2018-01-10T03:35:36.443Z,77.27
2018-01-10T03:38:07.630Z,76.94
2018-01-10T03:40:38.987Z,76.81
2018-01-10T03:43:10.339Z,76.74
2018-01-10T03:45:41.929Z,76.54
2018-01-10T03:48:13.148Z,76.41
2018-01-10T03:50:44.285Z,76.07
2018-01-10T03:53:15.642Z,76.29
2018-01-10T03:55:46.886Z,76.32
2018-01-10T03:58:18.140Z,76.34
2018-01-10T04:00:49.391Z,76.05
2018-01-10T04:03:20.742Z,75.77
2018-01-10T04:05:52.061Z,75.42
2018-01-10T04:08:23.231Z,74.96
2018-01-10T04:10:54.481Z,74.62
2018-01-10T04:13:26.443Z,74.69
2018-01-10T04:15:58.296Z,74.60
2018-01-10T04:18:29.671Z,74.26
2018-01-10T04:21:00.795Z,73.94
2018-01-10T04:23:32.238Z,73.85
2018-01-10T04:26:03.495Z,73.45
2018-01-10T04:28:34.873Z,73.33
2018-01-10T04:31:06.125Z,73.16
2018-01-10T04:33:37.367Z,73.05
2018-01-10T04:36:08.593Z,72.85
2018-01-10T04:38:39.685Z,72.70
2018-01-10T04:41:10.815Z,72.50
2018-01-10T04:43:41.928Z,72.57
2018-01-10T04:46:13.852Z,72.94
2018-01-10T04:48:45.066Z,73.11
2018-01-10T04:51:16.424Z,72.89
2018-01-10T04:53:48.185Z,72.58
2018-01-10T04:56:19.433Z,72.41
2018-01-10T04:58:51.393Z,72.45
2018-01-10T05:01:22.951Z,72.28
2018-01-10T05:03:54.934Z,72.08
2018-01-10T05:06:25.994Z,71.75
2018-01-10T05:08:57.314Z,71.70
2018-01-10T05:11:28.566Z,71.89
2018-01-10T05:14:00.025Z,71.79
2018-01-10T05:16:31.137Z,71.74
2018-01-10T05:19:02.415Z,71.77
2018-01-10T05:21:33.485Z,71.96
2018-01-10T05:24:04.620Z,71.82
2018-01-10T05:26:35.740Z,71.76
2018-01-10T05:29:07.001Z,71.54
2018-01-10T05:31:40.415Z,71.23
2018-01-10T05:34:11.634Z,71.01
2018-01-10T05:36:42.779Z,71.14
2018-01-10T05:39:13.878Z,71.07
2018-01-10T05:41:45.075Z,70.92
2018-01-10T05:44:17.603Z,70.84
2018-01-10T05:46:48.919Z,70.83
2018-01-10T05:49:20.171Z,70.74
2018-01-10T05:51:51.420Z,70.86
2018-01-10T05:54:22.541Z,71.06
2018-01-10T05:56:54.328Z,71.16
2018-01-10T05:59:25.575Z,71.47
2018-01-10T06:01:56.724Z,71.86
2018-01-10T06:04:27.966Z,72.25
2018-01-10T06:06:59.029Z,72.39
2018-01-10T06:09:30.164Z,72.43
2018-01-10T06:12:01.413Z,72.63
2018-01-10T06:14:32.510Z,72.88
2018-01-10T06:17:03.913Z,73.19
2018-01-10T06:19:34.984Z,73.38
2018-01-10T06:22:06.307Z,73.57
2018-01-10T06:24:37.550Z,73.83
2018-01-10T06:27:08.674Z,74.17
2018-01-10T06:29:39.782Z,74.54
2018-01-10T06:32:10.864Z,75.10
2018-01-10T06:34:41.984Z,75.53
2018-01-10T06:37:13.078Z,75.25
2018-01-10T06:39:44.108Z,75.31
2018-01-10T06:42:15.178Z,75.07
2018-01-10T06:44:46.292Z,74.76
2018-01-10T06:47:17.351Z,74.70
2018-01-10T06:49:49.839Z,74.55
2018-01-10T06:52:20.918Z,74.42
2018-01-10T06:54:52.126Z,74.59
2018-01-10T06:57:23.286Z,74.60
2018-01-10T06:59:54.359Z,74.38
2018-01-10T07:02:25.493Z,74.12
2018-01-10T07:04:56.556Z,74.06
2018-01-10T07:07:27.774Z,74.00
2018-01-10T07:09:59.011Z,73.75
2018-01-10T07:12:30.058Z,73.69
2018-01-10T07:15:01.153Z,73.44
2018-01-10T07:17:32.233Z,73.41
2018-01-10T07:20:04.005Z,73.01
2018-01-10T07:22:35.268Z,72.51
2018-01-10T07:25:06.320Z,71.92
2018-01-10T07:27:37.562Z,71.07
2018-01-10T07:30:08.708Z,70.29
2018-01-10T07:32:39.958Z,69.84
2018-01-10T07:35:11.052Z,69.03
2018-01-10T07:37:42.181Z,68.58
2018-01-10T07:40:13.292Z,67.86
2018-01-10T07:42:44.356Z,67.55
2018-01-10T07:45:15.459Z,67.61
2018-01-10T07:47:46.486Z,67.76
2018-01-10T07:50:17.681Z,67.86
2018-01-10T07:52:48.836Z,67.82
2018-01-10T07:55:19.918Z,67.77
2018-01-10T07:57:52.792Z,67.54
2018-01-10T08:00:23.884Z,67.58
2018-01-10T08:02:54.952Z,67.82
2018-01-10T08:05:26.024Z,68.38
2018-01-10T08:07:57.244Z,68.87
2018-01-10T08:10:28.494Z,69.06
2018-01-10T08:12:59.613Z,69.02
2018-01-10T08:15:30.891Z,68.53
2018-01-10T08:18:02.034Z,68.25
2018-01-10T08:20:33.285Z,67.67
2018-01-10T08:23:04.374Z,67.31
2018-01-10T08:25:35.688Z,67.26
2018-01-10T08:28:07.062Z,67.18
2018-01-10T08:30:38.227Z,66.93
2018-01-10T08:33:09.343Z,66.94
2018-01-10T08:35:40.577Z,66.65
2018-01-10T08:38:11.646Z,66.29
2018-01-10T08:40:42.698Z,66.27
2018-01-10T08:43:14.537Z,66.34
2018-01-10T08:45:45.882Z,65.94
2018-01-10T08:48:17.745Z,65.61
2018-01-10T08:50:49.480Z,65.46
2018-01-10T08:53:20.758Z,64.64
2018-01-10T08:55:51.903Z,63.75
2018-01-10T08:58:22.989Z,62.86
2018-01-10T09:00:54.913Z,62.05
2018-01-10T09:03:26.157Z,60.87
2018-01-10T09:05:57.314Z,60.10
2018-01-10T09:08:28.412Z,60.24
2018-01-10T09:10:59.603Z,60.10
2018-01-10T09:13:30.957Z,59.96
2018-01-10T09:16:02.058Z,59.57
2018-01-10T09:18:33.129Z,59.19
2018-01-10T09:21:04.396Z,59.09
2018-01-10T09:23:35.649Z,58.69
2018-01-10T09:26:06.769Z,57.69
2018-01-10T09:28:37.868Z,57.18
2018-01-10T09:31:08.932Z,57.08
2018-01-10T09:33:40.124Z,57.18
2018-01-10T09:36:11.367Z,56.84
2018-01-10T09:38:42.494Z,56.58
2018-01-10T09:41:13.611Z,56.40
2018-01-10T09:43:45.339Z,55.20
2018-01-10T09:46:16.584Z,54.86
2018-01-10T09:48:47.673Z,53.33
2018-01-10T09:51:18.720Z,53.16
2018-01-10T09:53:49.875Z,53.38
2018-01-10T09:56:20.978Z,53.75
2018-01-10T09:58:52.317Z,53.82
2018-01-10T10:01:23.565Z,53.60
2018-01-10T10:03:54.697Z,53.87
2018-01-10T10:06:25.959Z,54.36
2018-01-10T10:08:57.095Z,55.25
2018-01-10T10:11:28.263Z,55.32
2018-01-10T10:13:59.506Z,55.13
2018-01-10T10:16:30.751Z,54.73
2018-01-10T10:19:01.859Z,54.21
2018-01-10T10:21:33.185Z,54.24
2018-01-10T10:24:04.401Z,53.79
2018-01-10T10:26:35.548Z,53.52
2018-01-10T10:29:06.612Z,53.58
2018-01-10T10:31:37.755Z,53.44
2018-01-10T10:34:08.813Z,53.52
2018-01-10T10:36:40.023Z,53.21
2018-01-10T10:39:11.271Z,53.29
2018-01-10T10:41:42.357Z,52.31
2018-01-10T10:44:14.078Z,52.13
2018-01-10T10:46:45.206Z,52.21
2018-01-10T10:49:16.269Z,51.52
2018-01-10T10:51:47.428Z,50.99
2018-01-10T10:54:18.538Z,50.70
2018-01-10T10:56:49.693Z,50.25
2018-01-10T10:59:21.350Z,50.58
2018-01-10T11:01:52.733Z,51.40
2018-01-10T11:04:23.850Z,51.34
2018-01-10T11:06:55.133Z,51.66
2018-01-10T11:09:26.241Z,51.67
2018-01-10T11:11:57.628Z,51.93
2018-01-10T11:14:28.870Z,52.71
2018-01-10T11:16:59.980Z,53.37
2018-01-10T11:19:31.077Z,53.71
2018-01-10T11:22:02.192Z,54.87
2018-01-10T11:24:33.256Z,55.45
2018-01-10T11:27:04.409Z,55.91
2018-01-10T11:29:35.758Z,55.62
2018-01-10T11:32:07.518Z,55.95
2018-01-10T11:34:38.598Z,56.67
2018-01-10T11:37:09.813Z,57.52
2018-01-10T11:39:41.069Z,58.45
2018-01-10T11:42:12.414Z,58.79
2018-01-10T11:44:43.521Z,59.23
2018-01-10T11:47:14.719Z,59.64
2018-01-10T11:49:45.930Z,59.91
2018-01-10T11:52:17.104Z,60.34
2018-01-10T11:54:48.271Z,60.68
2018-01-10T11:57:19.487Z,60.77
2018-01-10T11:59:50.565Z,60.79
2018-01-10T12:02:21.778Z,60.96
2018-01-10T12:04:52.856Z,60.82
2018-01-10T12:07:23.987Z,60.48
2018-01-10T12:09:55.057Z,60.01
2018-01-10T12:12:26.382Z,59.66
2018-01-10T12:14:57.518Z,59.58
2018-01-10T12:17:28.622Z,59.80
2018-01-10T12:19:59.672Z,59.84
2018-01-10T12:22:30.759Z,59.55
2018-01-10T12:25:01.854Z,59.40
2018-01-10T12:27:32.936Z,59.21
2018-01-10T12:30:04.105Z,59.15
2018-01-10T12:32:35.968Z,59.01
2018-01-10T12:35:07.119Z,58.71
2018-01-10T12:37:38.363Z,58.17
2018-01-10T12:40:09.732Z,57.66
2018-01-10T12:42:40.836Z,57.13
2018-01-10T12:45:11.956Z,56.83
2018-01-10T12:47:43.149Z,56.70
2018-01-10T12:50:14.326Z,56.91
2018-01-10T12:52:45.393Z,56.91
2018-01-10T12:55:16.573Z,56.72
2018-01-10T12:57:47.647Z,56.52
2018-01-10T13:00:19.455Z,56.62
2018-01-10T13:02:50.655Z,56.75
2018-01-10T13:05:21.970Z,56.65
2018-01-10T13:07:53.023Z,56.53
2018-01-10T13:10:24.189Z,56.43
2018-01-10T13:12:55.290Z,56.41
2018-01-10T13:15:26.491Z,56.42
2018-01-10T13:17:57.613Z,56.52
2018-01-10T13:20:28.750Z,56.42
2018-01-10T13:22:59.877Z,56.36
2018-01-10T13:25:30.907Z,56.11
2018-01-10T13:28:02.034Z,56.06
2018-01-10T13:30:33.372Z,56.28
2018-01-10T13:33:04.622Z,56.55
2018-01-10T13:35:35.870Z,57.07
2018-01-10T13:38:06.939Z,58.08
2018-01-10T13:40:38.020Z,59.23
2018-01-10T13:43:09.086Z,60.19
2018-01-10T13:45:40.357Z,61.62
2018-01-10T13:48:11.415Z,62.33
2018-01-10T13:50:42.520Z,63.24
2018-01-10T13:53:13.798Z,63.63
2018-01-10T13:55:45.049Z,64.08
2018-01-10T13:58:16.170Z,64.60
2018-01-10T14:00:47.340Z,64.85
2018-01-10T14:03:18.448Z,65.67
2018-01-10T14:05:49.736Z,65.89
2018-01-10T14:08:20.830Z,65.77
2018-01-10T14:10:51.902Z,66.11
2018-01-10T14:13:23.078Z,66.16
2018-01-10T14:15:54.308Z,66.22
2018-01-10T14:18:25.326Z,66.67
2018-01-10T14:20:56.528Z,66.71
2018-01-10T14:23:27.608Z,67.11
2018-01-10T14:25:58.810Z,67.73
2018-01-10T14:28:29.943Z,68.28
2018-01-10T14:31:01.024Z,68.31
2018-01-10T14:33:32.180Z,68.35
2018-01-10T14:36:03.288Z,68.89
2018-01-10T14:38:34.448Z,68.92
2018-01-10T14:41:06.716Z,68.44
2018-01-10T14:43:37.970Z,67.92
2018-01-10T14:46:09.032Z,67.95
2018-01-10T14:48:40.245Z,68.41
2018-01-10T14:51:11.504Z,68.64
2018-01-10T14:53:42.742Z,68.81
2018-01-10T14:56:14.011Z,68.81
2018-01-10T14:58:45.243Z,68.83
2018-01-10T15:01:16.356Z,68.80
2018-01-10T15:03:47.464Z,69.37
2018-01-10T15:06:19.826Z,69.80
2018-01-10T15:08:50.832Z,70.18
2018-01-10T15:11:21.973Z,70.21
2018-01-10T15:13:53.145Z,70.50
2018-01-10T15:16:24.937Z,71.33
2018-01-10T15:18:56.076Z,71.48
2018-01-10T15:21:27.144Z,71.40
2018-01-10T15:23:58.893Z,71.65
2018-01-10T15:26:29.994Z,72.00
2018-01-10T15:29:01.667Z,71.50
2018-01-10T15:31:32.799Z,71.44
2018-01-10T15:34:03.869Z,71.44
2018-01-10T15:36:35.025Z,71.51
2018-01-10T15:39:06.127Z,71.33
2018-01-10T15:41:37.209Z,71.88
2018-01-10T15:44:08.665Z,72.24
2018-01-10T15:46:39.697Z,72.28
2018-01-10T15:49:10.803Z,72.34
2018-01-10T15:51:41.895Z,72.18
2018-01-10T15:54:13.051Z,71.93
2018-01-10T15:56:44.200Z,71.84
2018-01-10T15:59:15.287Z,71.56
2018-01-10T16:01:46.341Z,71.28
2018-01-10T16:04:17.405Z,71.03
2018-01-10T16:06:55.458Z,71.33
2018-01-10T16:09:26.663Z,71.99
2018-01-10T16:11:57.731Z,72.69
2018-01-10T16:14:28.795Z,73.21
2018-01-10T16:16:59.870Z,74.09
2018-01-10T16:19:30.968Z,74.08
2018-01-10T16:22:02.075Z,74.07
2018-01-10T16:24:33.154Z,74.02
2018-01-10T16:27:04.283Z,73.96
2018-01-10T16:29:35.365Z,74.09
2018-01-10T16:32:06.461Z,74.21
2018-01-10T16:34:37.641Z,74.42
2018-01-10T16:37:08.705Z,74.57
2018-01-10T16:39:39.829Z,75.08
2018-01-10T16:42:10.904Z,76.01
2018-01-10T16:44:42.012Z,76.60
2018-01-10T16:47:13.140Z,76.64
2018-01-10T16:49:44.607Z,76.39
2018-01-10T16:52:16.630Z,76.12
2018-01-10T16:54:47.784Z,75.93
2018-01-10T16:57:18.904Z,75.85
2018-01-10T16:59:50.029Z,76.07
2018-01-10T17:02:21.171Z,76.30
2018-01-10T17:04:52.291Z,77.13
2018-01-10T17:07:23.394Z,76.93
2018-01-10T17:09:54.655Z,77.37
2018-01-10T17:12:25.763Z,77.69
2018-01-10T17:14:56.913Z,78.23
2018-01-10T17:17:27.968Z,78.37
2018-01-10T17:19:59.097Z,79.04
2018-01-10T17:22:30.143Z,79.25
2018-01-10T17:25:01.380Z,79.28
2018-01-10T17:27:33.163Z,79.06
2018-01-10T17:30:04.341Z,78.96
2018-01-10T17:32:35.492Z,79.17
2018-01-10T17:35:06.649Z,79.41
2018-01-10T17:37:37.803Z,79.68
2018-01-10T17:40:08.905Z,80.67
2018-01-10T17:42:40.048Z,81.44
2018-01-10T17:45:11.201Z,81.55
2018-01-10T17:47:42.440Z,81.56
2018-01-10T17:50:13.684Z,81.06
2018-01-10T17:52:45.042Z,80.91
2018-01-10T17:55:16.403Z,80.86
2018-01-10T17:57:47.577Z,80.46
2018-01-10T18:00:18.994Z,80.59
2018-01-10T18:02:50.340Z,81.03
2018-01-10T18:05:21.696Z,80.72
2018-01-10T18:07:53.155Z,80.87
2018-01-10T18:10:24.544Z,80.45
2018-01-10T18:12:56.063Z,79.85
2018-01-10T18:15:27.276Z,79.76
2018-01-10T18:17:58.866Z,80.44
2018-01-10T18:20:30.342Z,80.47
2018-01-10T18:23:02.209Z,80.43
2018-01-10T18:25:33.840Z,80.44
2018-01-10T18:28:05.532Z,80.17
2018-01-10T18:30:36.948Z,79.69
2018-01-10T18:33:08.346Z,79.16
2018-01-10T18:35:39.828Z,79.00
2018-01-10T18:38:11.366Z,78.95
2018-01-10T18:40:42.764Z,78.72
2018-01-10T18:43:14.329Z,78.58
2018-01-10T18:45:46.695Z,78.69
2018-01-10T18:48:18.148Z,78.69
2018-01-10T18:50:49.841Z,78.46
2018-01-10T18:53:21.675Z,78.28
2018-01-10T18:55:53.567Z,78.12
2018-01-10T18:58:26.317Z,78.30
2018-01-10T19:00:58.384Z,78.68
2018-01-10T19:03:30.182Z,78.82
2018-01-10T19:06:01.906Z,78.57
2018-01-10T19:08:33.364Z,78.44
2018-01-10T19:11:05.367Z,78.38
2018-01-10T19:13:37.190Z,78.54
2018-01-10T19:16:08.752Z,78.49
2018-01-10T19:18:40.302Z,78.59
2018-01-10T19:21:11.755Z,78.40
2018-01-10T19:23:43.005Z,78.14
2018-01-10T19:26:15.285Z,78.24
2018-01-10T19:28:46.459Z,77.90
2018-01-10T19:31:17.525Z,77.79
2018-01-10T19:33:49.442Z,77.90
2018-01-10T19:36:20.794Z,77.97
2018-01-10T19:38:52.026Z,77.78
2018-01-10T19:41:23.098Z,77.64
2018-01-10T19:43:54.405Z,77.45
2018-01-10T19:46:25.475Z,77.63
2018-01-10T19:48:56.660Z,77.87
2018-01-10T19:51:27.804Z,77.78
2018-01-10T19:53:59.841Z,77.87
2018-01-10T19:56:31.198Z,77.60
2018-01-10T19:59:02.663Z,77.29
2018-01-10T20:01:33.799Z,77.51
2018-01-10T20:04:04.986Z,77.24
2018-01-10T20:06:36.073Z,76.44
2018-01-10T20:09:07.222Z,75.40
2018-01-10T20:11:38.306Z,74.84
2018-01-10T20:14:09.472Z,74.34
2018-01-10T20:16:40.556Z,74.13
2018-01-10T20:19:11.824Z,74.20
2018-01-10T20:21:42.942Z,74.62
2018-01-10T20:24:14.224Z,74.59
2018-01-10T20:26:45.329Z,74.17
2018-01-10T20:29:16.498Z,73.44
2018-01-10T20:31:47.598Z,73.26
2018-01-10T20:34:18.720Z,72.92
2018-01-10T20:36:49.958Z,72.72
2018-01-10T20:39:21.160Z,72.96
2018-01-10T20:41:52.245Z,73.26
2018-01-10T20:44:23.399Z,73.05
2018-01-10T20:46:54.498Z,72.57
2018-01-10T20:49:25.844Z,72.53
2018-01-10T20:51:56.965Z,72.45
2018-01-10T20:54:28.193Z,72.55
2018-01-10T20:56:59.304Z,72.61
2018-01-10T20:59:30.393Z,72.68
2018-01-10T21:02:01.462Z,72.67
2018-01-10T21:04:32.615Z,72.96
2018-01-10T21:07:03.703Z,72.90
2018-01-10T21:09:34.775Z,72.82
2018-01-10T21:12:05.835Z,72.87
2018-01-10T21:14:37.603Z,72.59
2018-01-10T21:17:08.714Z,72.51
2018-01-10T21:19:39.828Z,72.68
2018-01-10T21:22:10.935Z,72.71
2018-01-10T21:24:42.142Z,72.54
2018-01-10T21:27:13.399Z,72.36
2018-01-10T21:29:44.504Z,72.28
2018-01-10T21:32:15.649Z,72.48
2018-01-10T21:34:46.757Z,72.63
2018-01-10T21:37:17.875Z,72.36
2018-01-10T21:39:49.000Z,72.07
2018-01-10T21:42:21.110Z,71.81
2018-01-10T21:44:52.237Z,71.59
2018-01-10T21:47:24.337Z,71.63
2018-01-10T21:49:56.296Z,71.54
2018-01-10T21:52:27.414Z,71.46
2018-01-10T21:54:58.569Z,71.74
2018-01-10T21:57:29.687Z,71.93
2018-01-10T22:00:01.434Z,72.02
2018-01-10T22:02:32.622Z,72.25
2018-01-10T22:05:03.748Z,72.49
2018-01-10T22:07:34.793Z,72.59
2018-01-10T22:10:06.058Z,72.69
2018-01-10T22:12:37.149Z,72.43
2018-01-10T22:15:08.266Z,72.50
2018-01-10T22:17:39.401Z,72.28
2018-01-10T22:20:10.654Z,72.14
2018-01-10T22:22:41.680Z,72.17
2018-01-10T22:25:12.749Z,72.10
2018-01-10T22:27:43.895Z,72.11
2018-01-10T22:30:15.009Z,72.08
2018-01-10T22:32:46.189Z,72.13
2018-01-10T22:35:17.278Z,72.22
2018-01-10T22:37:48.493Z,72.31
2018-01-10T22:40:19.587Z,72.22
2018-01-10T22:42:50.697Z,72.02
2018-01-10T22:45:21.764Z,72.01
2018-01-10T22:47:52.963Z,71.86
2018-01-10T22:50:24.335Z,71.82
2018-01-10T22:52:55.534Z,72.00
2018-01-10T22:55:26.620Z,72.29
2018-01-10T22:57:57.717Z,72.49
2018-01-10T23:00:28.855Z,72.47
2018-01-10T23:02:59.956Z,72.46
2018-01-10T23:05:31.084Z,72.42
2018-01-10T23:08:02.126Z,72.41
2018-01-10T23:10:33.230Z,72.23
2018-01-10T23:13:04.475Z,72.04
2018-01-10T23:15:35.591Z,72.23
2018-01-10T23:18:06.846Z,72.39
2018-01-10T23:20:37.967Z,72.72
2018-01-10T23:23:09.066Z,72.77
2018-01-10T23:25:40.754Z,73.00
2018-01-10T23:28:11.848Z,72.95
2018-01-10T23:30:42.962Z,72.89
2018-01-10T23:33:14.033Z,72.84
2018-01-10T23:35:45.122Z,72.73
2018-01-10T23:38:16.199Z,73.15
2018-01-10T23:40:47.313Z,73.30
2018-01-10T23:43:18.392Z,73.30
2018-01-10T23:45:49.564Z,72.89
2018-01-10T23:48:20.636Z,72.57
2018-01-10T23:50:51.724Z,72.46
2018-01-10T23:53:22.826Z,72.29
2018-01-10T23:55:53.877Z,72.10
2018-01-10T23:58:25.076Z,71.78
